KFRR

Front Royal-Warren County Airport

Front Royal, Virginia, USA
METAR KFRR 230455Z AUTO 21003KT 10SM SCT090 09/03 A3011 RMK AO1
Observed Flight Rules
Oct-23 @ 04:55 UTC (22 minutes ago) Visual Flight Rules
Wind Visibility Clouds
210° at 3 knots 10 miles
  • Scattered at 9,000' AGL
Temperatures Readings
Current 9°C / 48°F
Dewpoint 3°C / 37°F
Humidity 66%
Altimeter 30.11" Hg
Pressure 1020 hPa
Elevation 216
METAR KFRR 230455Z AUTO 21003KT 10SM SCT090 09/03 A3011 RMK AO1
Observed Flight Rules
Oct-23 @ 04:55 UTC
(22 minutes ago)
VFR
Wind Visibility
210° at 3 knots 10 miles
Clouds
  • Scattered at 9,000' AGL
Temperature Dewpoint
9°C / 48°F 3°C / 37°F
Humidity Altimeter Pressure
66% 30.11" Hg 1020 hPa